sensor_id;sensor_type;location;lat;lon;timestamp;P1;durP1;ratioP1;P2;durP2;ratioP2
3207;SDS011;1616;52.394;9.756;2022-09-20T00:01:16;9.30;;;1.57;;
3207;SDS011;1616;52.394;9.756;2022-09-20T00:03:45;17.37;;;1.83;;
3207;SDS011;1616;52.394;9.756;2022-09-20T00:06:14;8.57;;;1.50;;
3207;SDS011;1616;52.394;9.756;2022-09-20T00:08:48;12.13;;;1.73;;
3207;SDS011;1616;52.394;9.756;2022-09-20T00:11:16;4.60;;;1.80;;
3207;SDS011;1616;52.394;9.756;2022-09-20T00:13:43;7.60;;;1.40;;
3207;SDS011;1616;52.394;9.756;2022-09-20T00:16:11;11.63;;;2.53;;
3207;SDS011;1616;52.394;9.756;2022-09-20T00:18:39;17.03;;;2.63;;
3207;SDS011;1616;52.394;9.756;2022-09-20T00:21:05;4.77;;;1.63;;
3207;SDS011;1616;52.394;9.756;2022-09-20T00:23:32;8.97;;;1.60;;
3207;SDS011;1616;52.394;9.756;2022-09-20T00:26:01;8.40;;;1.70;;
3207;SDS011;1616;52.394;9.756;2022-09-20T00:28:28;3.70;;;2.40;;
3207;SDS011;1616;52.394;9.756;2022-09-20T00:30:54;6.93;;;1.70;;
3207;SDS011;1616;52.394;9.756;2022-09-20T00:33:21;14.30;;;3.83;;
3207;SDS011;1616;52.394;9.756;2022-09-20T00:35:48;9.87;;;1.43;;
3207;SDS011;1616;52.394;9.756;2022-09-20T00:38:14;11.63;;;2.17;;
3207;SDS011;1616;52.394;9.756;2022-09-20T00:40:41;21.83;;;2.73;;
3207;SDS011;1616;52.394;9.756;2022-09-20T00:43:15;3.93;;;1.60;;
3207;SDS011;1616;52.394;9.756;2022-09-20T00:45:45;5.10;;;1.40;;
3207;SDS011;1616;52.394;9.756;2022-09-20T00:48:23;10.60;;;2.10;;
3207;SDS011;1616;52.394;9.756;2022-09-20T00:50:54;11.03;;;1.90;;
3207;SDS011;1616;52.394;9.756;2022-09-20T00:53:28;10.53;;;1.67;;
3207;SDS011;1616;52.394;9.756;2022-09-20T00:56:06;4.10;;;1.70;;
3207;SDS011;1616;52.394;9.756;2022-09-20T00:58:37;8.10;;;1.70;;
3207;SDS011;1616;52.394;9.756;2022-09-20T01:01:07;11.67;;;1.80;;
3207;SDS011;1616;52.394;9.756;2022-09-20T01:03:34;8.53;;;1.60;;
3207;SDS011;1616;52.394;9.756;2022-09-20T01:06:03;6.60;;;1.93;;
3207;SDS011;1616;52.394;9.756;2022-09-20T01:08:32;12.53;;;1.87;;
3207;SDS011;1616;52.394;9.756;2022-09-20T01:10:59;6.63;;;1.60;;
3207;SDS011;1616;52.394;9.756;2022-09-20T01:13:25;6.23;;;1.90;;
3207;SDS011;1616;52.394;9.756;2022-09-20T01:15:51;2.83;;;1.50;;
3207;SDS011;1616;52.394;9.756;2022-09-20T01:18:18;8.10;;;2.27;;
3207;SDS011;1616;52.394;9.756;2022-09-20T01:20:45;13.67;;;2.30;;
3207;SDS011;1616;52.394;9.756;2022-09-20T01:29:08;15.53;;;3.10;;
3207;SDS011;1616;52.394;9.756;2022-09-20T01:31:54;12.30;;;1.60;;
3207;SDS011;1616;52.394;9.756;2022-09-20T01:34:30;5.47;;;1.73;;
3207;SDS011;1616;52.394;9.756;2022-09-20T01:39:51;8.37;;;1.90;;
3207;SDS011;1616;52.394;9.756;2022-09-20T01:42:32;10.23;;;1.93;;
3207;SDS011;1616;52.394;9.756;2022-09-20T01:45:02;15.53;;;3.40;;
3207;SDS011;1616;52.394;9.756;2022-09-20T01:56:44;14.67;;;3.37;;
3207;SDS011;1616;52.394;9.756;2022-09-20T02:05:09;7.60;;;2.40;;
3207;SDS011;1616;52.394;9.756;2022-09-20T02:11:05;12.20;;;2.83;;
3207;SDS011;1616;52.394;9.756;2022-09-20T02:27:48;10.63;;;2.90;;
3207;SDS011;1616;52.394;9.756;2022-09-20T02:30:34;30.07;;;3.03;;
3207;SDS011;1616;52.394;9.756;2022-09-20T02:33:31;16.73;;;2.93;;
3207;SDS011;1616;52.394;9.756;2022-09-20T02:39:01;10.10;;;2.30;;
3207;SDS011;1616;52.394;9.756;2022-09-20T02:55:01;23.03;;;3.43;;
3207;SDS011;1616;52.394;9.756;2022-09-20T02:57:58;12.47;;;2.83;;
3207;SDS011;1616;52.394;9.756;2022-09-20T03:09:10;24.07;;;3.33;;
3207;SDS011;1616;52.394;9.756;2022-09-20T03:14:18;8.43;;;2.80;;
3207;SDS011;1616;52.394;9.756;2022-09-20T03:20:04;14.33;;;3.80;;
3207;SDS011;1616;52.394;9.756;2022-09-20T03:41:09;19.43;;;3.97;;
3207;SDS011;1616;52.394;9.756;2022-09-20T03:46:49;5.77;;;3.57;;
3207;SDS011;1616;52.394;9.756;2022-09-20T03:49:30;20.57;;;4.47;;
3207;SDS011;1616;52.394;9.756;2022-09-20T03:52:46;5.73;;;3.90;;
3207;SDS011;1616;52.394;9.756;2022-09-20T03:58:26;5.83;;;2.20;;
3207;SDS011;1616;52.394;9.756;2022-09-20T04:12:47;6.80;;;2.10;;
3207;SDS011;1616;52.394;9.756;2022-09-20T04:18:14;3.03;;;2.03;;
3207;SDS011;1616;52.394;9.756;2022-09-20T04:25:56;8.30;;;2.10;;
3207;SDS011;1616;52.394;9.756;2022-09-20T04:28:27;5.40;;;1.90;;
3207;SDS011;1616;52.394;9.756;2022-09-20T04:31:17;8.10;;;2.73;;
3207;SDS011;1616;52.394;9.756;2022-09-20T04:34:01;7.40;;;2.77;;
3207;SDS011;1616;52.394;9.756;2022-09-20T04:39:25;4.10;;;2.33;;
3207;SDS011;1616;52.394;9.756;2022-09-20T05:22:23;9.53;;;5.40;;
3207;SDS011;1616;52.394;9.756;2022-09-20T05:25:07;9.00;;;4.37;;
3207;SDS011;1616;52.394;9.756;2022-09-20T05:31:04;19.67;;;9.10;;
3207;SDS011;1616;52.394;9.756;2022-09-20T05:36:25;9.10;;;6.27;;
3207;SDS011;1616;52.394;9.756;2022-09-20T05:39:15;16.07;;;8.13;;
3207;SDS011;1616;52.394;9.756;2022-09-20T06:04:37;18.57;;;5.73;;
3207;SDS011;1616;52.394;9.756;2022-09-20T06:10:10;9.97;;;5.63;;
3207;SDS011;1616;52.394;9.756;2022-09-20T06:12:52;10.37;;;5.70;;
3207;SDS011;1616;52.394;9.756;2022-09-20T06:15:53;16.80;;;6.03;;
3207;SDS011;1616;52.394;9.756;2022-09-20T06:23:57;13.83;;;5.67;;
3207;SDS011;1616;52.394;9.756;2022-09-20T06:26:26;13.27;;;5.83;;
3207;SDS011;1616;52.394;9.756;2022-09-20T06:29:03;9.20;;;6.30;;
3207;SDS011;1616;52.394;9.756;2022-09-20T06:31:33;10.87;;;6.27;;
3207;SDS011;1616;52.394;9.756;2022-09-20T06:34:02;12.87;;;6.27;;
3207;SDS011;1616;52.394;9.756;2022-09-20T06:36:34;7.73;;;5.93;;
3207;SDS011;1616;52.394;9.756;2022-09-20T06:42:31;13.93;;;5.00;;
3207;SDS011;1616;52.394;9.756;2022-09-20T06:44:57;4.73;;;4.20;;
3207;SDS011;1616;52.394;9.756;2022-09-20T06:47:23;16.67;;;5.70;;
3207;SDS011;1616;52.394;9.756;2022-09-20T06:49:51;11.23;;;4.43;;
3207;SDS011;1616;52.394;9.756;2022-09-20T06:52:18;9.20;;;4.17;;
3207;SDS011;1616;52.394;9.756;2022-09-20T06:54:47;12.10;;;3.80;;
3207;SDS011;1616;52.394;9.756;2022-09-20T06:57:29;11.90;;;4.80;;
3207;SDS011;1616;52.394;9.756;2022-09-20T06:59:59;7.40;;;3.10;;
3207;SDS011;1616;52.394;9.756;2022-09-20T07:02:25;10.73;;;3.40;;
3207;SDS011;1616;52.394;9.756;2022-09-20T07:04:51;5.47;;;2.50;;
3207;SDS011;1616;52.394;9.756;2022-09-20T07:07:19;8.93;;;2.80;;
3207;SDS011;1616;52.394;9.756;2022-09-20T07:09:45;11.80;;;5.13;;
3207;SDS011;1616;52.394;9.756;2022-09-20T07:12:11;8.80;;;3.07;;
3207;SDS011;1616;52.394;9.756;2022-09-20T07:14:37;6.13;;;2.90;;
3207;SDS011;1616;52.394;9.756;2022-09-20T07:17:03;8.90;;;3.00;;
3207;SDS011;1616;52.394;9.756;2022-09-20T07:19:29;7.40;;;3.20;;
3207;SDS011;1616;52.394;9.756;2022-09-20T07:21:55;5.50;;;2.63;;
3207;SDS011;1616;52.394;9.756;2022-09-20T07:24:20;10.03;;;3.07;;
3207;SDS011;1616;52.394;9.756;2022-09-20T07:26:59;5.87;;;2.50;;
3207;SDS011;1616;52.394;9.756;2022-09-20T07:29:26;4.33;;;2.00;;
3207;SDS011;1616;52.394;9.756;2022-09-20T07:31:54;7.27;;;2.57;;
3207;SDS011;1616;52.394;9.756;2022-09-20T07:34:20;9.13;;;2.20;;
3207;SDS011;1616;52.394;9.756;2022-09-20T07:36:46;7.43;;;1.97;;
3207;SDS011;1616;52.394;9.756;2022-09-20T07:39:12;6.97;;;1.47;;
3207;SDS011;1616;52.394;9.756;2022-09-20T07:41:39;4.80;;;2.10;;
3207;SDS011;1616;52.394;9.756;2022-09-20T07:44:04;5.20;;;2.17;;
3207;SDS011;1616;52.394;9.756;2022-09-20T07:46:51;5.70;;;1.20;;
3207;SDS011;1616;52.394;9.756;2022-09-20T07:49:19;4.90;;;1.57;;
3207;SDS011;1616;52.394;9.756;2022-09-20T07:51:47;7.07;;;2.50;;
3207;SDS011;1616;52.394;9.756;2022-09-20T07:54:14;8.10;;;1.60;;
3207;SDS011;1616;52.394;9.756;2022-09-20T07:56:40;13.67;;;1.97;;
3207;SDS011;1616;52.394;9.756;2022-09-20T07:59:05;2.93;;;1.80;;
3207;SDS011;1616;52.394;9.756;2022-09-20T08:01:31;6.40;;;1.73;;
3207;SDS011;1616;52.394;9.756;2022-09-20T08:03:57;2.23;;;1.20;;
3207;SDS011;1616;52.394;9.756;2022-09-20T08:06:23;4.03;;;1.63;;
3207;SDS011;1616;52.394;9.756;2022-09-20T08:08:51;5.10;;;1.30;;
3207;SDS011;1616;52.394;9.756;2022-09-20T08:11:18;5.43;;;1.37;;
3207;SDS011;1616;52.394;9.756;2022-09-20T08:13:50;3.37;;;1.90;;
3207;SDS011;1616;52.394;9.756;2022-09-20T08:16:18;6.00;;;1.30;;
3207;SDS011;1616;52.394;9.756;2022-09-20T08:18:45;1.83;;;1.23;;
3207;SDS011;1616;52.394;9.756;2022-09-20T08:21:15;1.63;;;1.03;;
3207;SDS011;1616;52.394;9.756;2022-09-20T08:23:44;3.00;;;1.17;;
3207;SDS011;1616;52.394;9.756;2022-09-20T08:26:13;2.30;;;1.10;;
3207;SDS011;1616;52.394;9.756;2022-09-20T08:28:42;5.70;;;1.20;;
3207;SDS011;1616;52.394;9.756;2022-09-20T08:31:12;13.57;;;1.20;;
3207;SDS011;1616;52.394;9.756;2022-09-20T08:33:40;9.20;;;1.30;;
3207;SDS011;1616;52.394;9.756;2022-09-20T08:36:08;4.63;;;1.60;;
3207;SDS011;1616;52.394;9.756;2022-09-20T08:38:36;5.10;;;1.60;;
3207;SDS011;1616;52.394;9.756;2022-09-20T08:41:03;4.40;;;1.30;;
3207;SDS011;1616;52.394;9.756;2022-09-20T08:43:42;1.90;;;1.20;;
3207;SDS011;1616;52.394;9.756;2022-09-20T08:46:12;4.00;;;1.23;;
3207;SDS011;1616;52.394;9.756;2022-09-20T08:48:41;3.07;;;1.20;;
3207;SDS011;1616;52.394;9.756;2022-09-20T08:51:11;6.07;;;1.47;;
3207;SDS011;1616;52.394;9.756;2022-09-20T08:53:47;2.07;;;1.43;;
3207;SDS011;1616;52.394;9.756;2022-09-20T08:56:15;6.63;;;1.50;;
3207;SDS011;1616;52.394;9.756;2022-09-20T08:58:41;7.87;;;1.70;;
3207;SDS011;1616;52.394;9.756;2022-09-20T09:01:10;3.00;;;1.40;;
3207;SDS011;1616;52.394;9.756;2022-09-20T09:03:43;4.07;;;1.67;;
3207;SDS011;1616;52.394;9.756;2022-09-20T09:06:10;3.83;;;1.30;;
3207;SDS011;1616;52.394;9.756;2022-09-20T09:08:38;3.73;;;1.90;;
3207;SDS011;1616;52.394;9.756;2022-09-20T09:11:11;7.10;;;1.77;;
3207;SDS011;1616;52.394;9.756;2022-09-20T09:17:07;3.87;;;2.20;;
3207;SDS011;1616;52.394;9.756;2022-09-20T09:19:42;4.73;;;1.80;;
3207;SDS011;1616;52.394;9.756;2022-09-20T09:22:13;5.00;;;2.00;;
3207;SDS011;1616;52.394;9.756;2022-09-20T09:25:04;4.43;;;2.20;;
3207;SDS011;1616;52.394;9.756;2022-09-20T09:28:01;5.80;;;1.60;;
3207;SDS011;1616;52.394;9.756;2022-09-20T09:33:23;6.23;;;2.20;;
3207;SDS011;1616;52.394;9.756;2022-09-20T09:35:57;7.07;;;2.10;;
3207;SDS011;1616;52.394;9.756;2022-09-20T09:38:29;2.70;;;1.70;;
3207;SDS011;1616;52.394;9.756;2022-09-20T09:41:00;7.00;;;1.60;;
3207;SDS011;1616;52.394;9.756;2022-09-20T09:43:32;2.67;;;1.40;;
3207;SDS011;1616;52.394;9.756;2022-09-20T09:46:19;4.97;;;1.80;;
3207;SDS011;1616;52.394;9.756;2022-09-20T09:49:08;5.10;;;1.50;;
3207;SDS011;1616;52.394;9.756;2022-09-20T09:54:24;3.20;;;1.30;;
3207;SDS011;1616;52.394;9.756;2022-09-20T09:59:36;7.20;;;1.80;;
3207;SDS011;1616;52.394;9.756;2022-09-20T10:05:34;6.27;;;1.20;;
3207;SDS011;1616;52.394;9.756;2022-09-20T10:16:13;2.60;;;1.20;;
3207;SDS011;1616;52.394;9.756;2022-09-20T10:18:48;3.40;;;1.60;;
3207;SDS011;1616;52.394;9.756;2022-09-20T10:24:27;2.00;;;1.10;;
3207;SDS011;1616;52.394;9.756;2022-09-20T10:30:22;1.77;;;0.93;;
3207;SDS011;1616;52.394;9.756;2022-09-20T10:33:37;5.70;;;1.07;;
3207;SDS011;1616;52.394;9.756;2022-09-20T10:41:14;1.73;;;1.10;;
3207;SDS011;1616;52.394;9.756;2022-09-20T10:44:29;3.60;;;0.80;;
3207;SDS011;1616;52.394;9.756;2022-09-20T10:47:11;1.30;;;0.80;;
3207;SDS011;1616;52.394;9.756;2022-09-20T10:52:48;2.50;;;0.80;;
3207;SDS011;1616;52.394;9.756;2022-09-20T11:01:09;1.73;;;0.70;;
3207;SDS011;1616;52.394;9.756;2022-09-20T11:09:37;1.50;;;0.67;;
3207;SDS011;1616;52.394;9.756;2022-09-20T11:12:13;2.80;;;0.67;;
3207;SDS011;1616;52.394;9.756;2022-09-20T11:14:53;2.13;;;0.80;;
3207;SDS011;1616;52.394;9.756;2022-09-20T11:20:04;1.40;;;0.90;;
3207;SDS011;1616;52.394;9.756;2022-09-20T11:23:00;2.07;;;1.07;;
3207;SDS011;1616;52.394;9.756;2022-09-20T11:25:38;2.40;;;0.90;;
3207;SDS011;1616;52.394;9.756;2022-09-20T11:30:40;1.77;;;0.70;;
3207;SDS011;1616;52.394;9.756;2022-09-20T11:33:39;2.37;;;0.80;;
3207;SDS011;1616;52.394;9.756;2022-09-20T11:36:18;3.47;;;1.00;;
3207;SDS011;1616;52.394;9.756;2022-09-20T11:38:53;1.37;;;0.80;;
3207;SDS011;1616;52.394;9.756;2022-09-20T11:41:30;4.73;;;0.70;;
3207;SDS011;1616;52.394;9.756;2022-09-20T11:44:04;1.40;;;0.90;;
3207;SDS011;1616;52.394;9.756;2022-09-20T11:49:23;5.07;;;1.10;;
3207;SDS011;1616;52.394;9.756;2022-09-20T11:57:37;1.87;;;0.90;;
3207;SDS011;1616;52.394;9.756;2022-09-20T12:00:03;1.47;;;0.80;;
3207;SDS011;1616;52.394;9.756;2022-09-20T12:05:24;2.83;;;0.90;;
3207;SDS011;1616;52.394;9.756;2022-09-20T12:07:51;1.67;;;0.70;;
3207;SDS011;1616;52.394;9.756;2022-09-20T12:10:23;5.37;;;0.90;;
3207;SDS011;1616;52.394;9.756;2022-09-20T12:12:55;1.80;;;0.90;;
3207;SDS011;1616;52.394;9.756;2022-09-20T12:18:01;2.37;;;0.70;;
3207;SDS011;1616;52.394;9.756;2022-09-20T12:26:04;2.87;;;0.73;;
3207;SDS011;1616;52.394;9.756;2022-09-20T12:28:41;1.30;;;0.90;;
3207;SDS011;1616;52.394;9.756;2022-09-20T12:39:27;3.33;;;1.17;;
3207;SDS011;1616;52.394;9.756;2022-09-20T12:57:58;2.80;;;0.97;;
3207;SDS011;1616;52.394;9.756;2022-09-20T13:00:35;2.83;;;0.90;;
3207;SDS011;1616;52.394;9.756;2022-09-20T13:05:41;2.30;;;0.80;;
3207;SDS011;1616;52.394;9.756;2022-09-20T13:08:16;1.50;;;0.83;;
3207;SDS011;1616;52.394;9.756;2022-09-20T13:10:49;1.10;;;0.63;;
3207;SDS011;1616;52.394;9.756;2022-09-20T13:13:26;1.67;;;0.70;;
3207;SDS011;1616;52.394;9.756;2022-09-20T13:15:55;1.10;;;0.70;;
3207;SDS011;1616;52.394;9.756;2022-09-20T13:18:24;1.20;;;0.70;;
3207;SDS011;1616;52.394;9.756;2022-09-20T13:20:52;1.73;;;0.70;;
3207;SDS011;1616;52.394;9.756;2022-09-20T13:23:24;1.63;;;0.63;;
3207;SDS011;1616;52.394;9.756;2022-09-20T13:25:54;1.93;;;0.83;;
3207;SDS011;1616;52.394;9.756;2022-09-20T13:33:45;2.67;;;0.97;;
3207;SDS011;1616;52.394;9.756;2022-09-20T13:36:11;6.53;;;0.93;;
3207;SDS011;1616;52.394;9.756;2022-09-20T13:38:38;6.00;;;0.90;;
3207;SDS011;1616;52.394;9.756;2022-09-20T13:41:08;1.40;;;0.80;;
3207;SDS011;1616;52.394;9.756;2022-09-20T13:48:37;4.60;;;1.03;;
3207;SDS011;1616;52.394;9.756;2022-09-20T13:51:03;4.40;;;1.00;;
3207;SDS011;1616;52.394;9.756;2022-09-20T13:53:40;2.40;;;1.03;;
3207;SDS011;1616;52.394;9.756;2022-09-20T13:58:48;1.40;;;0.80;;
3207;SDS011;1616;52.394;9.756;2022-09-20T14:03:55;1.30;;;0.90;;
3207;SDS011;1616;52.394;9.756;2022-09-20T14:06:24;6.93;;;1.20;;
3207;SDS011;1616;52.394;9.756;2022-09-20T14:08:52;3.80;;;1.07;;
3207;SDS011;1616;52.394;9.756;2022-09-20T14:13:50;2.80;;;1.00;;
3207;SDS011;1616;52.394;9.756;2022-09-20T14:16:21;2.33;;;1.30;;
3207;SDS011;1616;52.394;9.756;2022-09-20T14:18:51;2.30;;;0.90;;
3207;SDS011;1616;52.394;9.756;2022-09-20T14:21:23;3.73;;;0.90;;
3207;SDS011;1616;52.394;9.756;2022-09-20T14:23:51;2.47;;;1.00;;
3207;SDS011;1616;52.394;9.756;2022-09-20T14:28:47;2.30;;;1.10;;
3207;SDS011;1616;52.394;9.756;2022-09-20T14:31:23;1.50;;;0.93;;
3207;SDS011;1616;52.394;9.756;2022-09-20T14:33:55;1.20;;;0.90;;
3207;SDS011;1616;52.394;9.756;2022-09-20T14:36:24;1.23;;;0.80;;
3207;SDS011;1616;52.394;9.756;2022-09-20T14:38:58;3.83;;;0.80;;
3207;SDS011;1616;52.394;9.756;2022-09-20T14:41:31;1.63;;;0.83;;
3207;SDS011;1616;52.394;9.756;2022-09-20T14:44:00;2.43;;;0.87;;
3207;SDS011;1616;52.394;9.756;2022-09-20T14:46:28;3.10;;;0.90;;
3207;SDS011;1616;52.394;9.756;2022-09-20T14:49:20;1.70;;;0.73;;
3207;SDS011;1616;52.394;9.756;2022-09-20T14:51:49;1.10;;;0.70;;
3207;SDS011;1616;52.394;9.756;2022-09-20T14:54:38;1.27;;;0.70;;
3207;SDS011;1616;52.394;9.756;2022-09-20T14:57:05;1.70;;;0.90;;
3207;SDS011;1616;52.394;9.756;2022-09-20T14:59:40;7.70;;;0.80;;
3207;SDS011;1616;52.394;9.756;2022-09-20T15:04:34;2.03;;;0.80;;
3207;SDS011;1616;52.394;9.756;2022-09-20T15:07:03;2.27;;;0.80;;
3207;SDS011;1616;52.394;9.756;2022-09-20T15:09:31;1.23;;;0.70;;
3207;SDS011;1616;52.394;9.756;2022-09-20T15:12:10;2.77;;;0.73;;
3207;SDS011;1616;52.394;9.756;2022-09-20T15:14:37;1.20;;;0.70;;
3207;SDS011;1616;52.394;9.756;2022-09-20T15:17:05;1.60;;;0.60;;
3207;SDS011;1616;52.394;9.756;2022-09-20T15:19:34;1.77;;;0.70;;
3207;SDS011;1616;52.394;9.756;2022-09-20T15:21:59;1.27;;;0.70;;
3207;SDS011;1616;52.394;9.756;2022-09-20T15:24:25;1.27;;;0.67;;
3207;SDS011;1616;52.394;9.756;2022-09-20T15:26:51;1.00;;;0.60;;
3207;SDS011;1616;52.394;9.756;2022-09-20T15:29:17;1.83;;;0.60;;
3207;SDS011;1616;52.394;9.756;2022-09-20T15:31:43;1.00;;;0.60;;
3207;SDS011;1616;52.394;9.756;2022-09-20T15:34:11;1.37;;;0.60;;
3207;SDS011;1616;52.394;9.756;2022-09-20T15:36:39;2.70;;;0.73;;
3207;SDS011;1616;52.394;9.756;2022-09-20T15:39:05;1.00;;;0.50;;
3207;SDS011;1616;52.394;9.756;2022-09-20T15:41:32;1.87;;;0.50;;
3207;SDS011;1616;52.394;9.756;2022-09-20T15:43:58;1.97;;;0.70;;
3207;SDS011;1616;52.394;9.756;2022-09-20T15:46:25;0.97;;;0.50;;
3207;SDS011;1616;52.394;9.756;2022-09-20T15:48:52;1.20;;;0.60;;
3207;SDS011;1616;52.394;9.756;2022-09-20T15:51:19;1.10;;;0.50;;
3207;SDS011;1616;52.394;9.756;2022-09-20T15:53:46;3.37;;;0.77;;
3207;SDS011;1616;52.394;9.756;2022-09-20T15:56:19;1.10;;;0.63;;
3207;SDS011;1616;52.394;9.756;2022-09-20T15:58:48;0.83;;;0.50;;
3207;SDS011;1616;52.394;9.756;2022-09-20T16:01:16;0.90;;;0.60;;
3207;SDS011;1616;52.394;9.756;2022-09-20T16:03:43;1.10;;;0.80;;
3207;SDS011;1616;52.394;9.756;2022-09-20T16:06:10;1.67;;;0.70;;
3207;SDS011;1616;52.394;9.756;2022-09-20T16:08:38;1.00;;;0.60;;
3207;SDS011;1616;52.394;9.756;2022-09-20T16:11:05;1.73;;;0.60;;
3207;SDS011;1616;52.394;9.756;2022-09-20T16:13:33;3.03;;;0.60;;
3207;SDS011;1616;52.394;9.756;2022-09-20T16:16:01;1.23;;;0.63;;
3207;SDS011;1616;52.394;9.756;2022-09-20T16:18:28;1.50;;;0.60;;
3207;SDS011;1616;52.394;9.756;2022-09-20T16:21:14;1.30;;;0.70;;
3207;SDS011;1616;52.394;9.756;2022-09-20T16:23:46;2.70;;;0.60;;
3207;SDS011;1616;52.394;9.756;2022-09-20T16:26:14;4.40;;;0.80;;
3207;SDS011;1616;52.394;9.756;2022-09-20T16:28:43;8.43;;;0.80;;
3207;SDS011;1616;52.394;9.756;2022-09-20T16:34:14;3.23;;;0.87;;
3207;SDS011;1616;52.394;9.756;2022-09-20T16:36:44;3.17;;;0.83;;
3207;SDS011;1616;52.394;9.756;2022-09-20T16:39:14;1.30;;;0.90;;
3207;SDS011;1616;52.394;9.756;2022-09-20T16:41:41;1.30;;;1.00;;
3207;SDS011;1616;52.394;9.756;2022-09-20T16:44:09;2.00;;;0.90;;
3207;SDS011;1616;52.394;9.756;2022-09-20T16:46:35;2.47;;;1.27;;
3207;SDS011;1616;52.394;9.756;2022-09-20T16:49:02;1.73;;;1.30;;
3207;SDS011;1616;52.394;9.756;2022-09-20T16:51:37;2.43;;;0.80;;
3207;SDS011;1616;52.394;9.756;2022-09-20T16:54:05;1.40;;;0.80;;
3207;SDS011;1616;52.394;9.756;2022-09-20T16:56:35;2.93;;;1.00;;
3207;SDS011;1616;52.394;9.756;2022-09-20T16:59:03;5.93;;;1.63;;
3207;SDS011;1616;52.394;9.756;2022-09-20T17:01:30;3.70;;;1.30;;
3207;SDS011;1616;52.394;9.756;2022-09-20T17:03:56;2.57;;;1.13;;
3207;SDS011;1616;52.394;9.756;2022-09-20T17:06:22;6.83;;;1.20;;
3207;SDS011;1616;52.394;9.756;2022-09-20T17:08:52;14.20;;;1.10;;
3207;SDS011;1616;52.394;9.756;2022-09-20T17:11:20;2.47;;;0.90;;
3207;SDS011;1616;52.394;9.756;2022-09-20T17:13:48;2.63;;;1.00;;
3207;SDS011;1616;52.394;9.756;2022-09-20T17:16:17;1.30;;;0.80;;
3207;SDS011;1616;52.394;9.756;2022-09-20T17:19:09;3.10;;;0.93;;
3207;SDS011;1616;52.394;9.756;2022-09-20T17:21:36;4.10;;;1.40;;
3207;SDS011;1616;52.394;9.756;2022-09-20T17:24:03;3.47;;;1.80;;
3207;SDS011;1616;52.394;9.756;2022-09-20T17:26:40;3.50;;;1.30;;
3207;SDS011;1616;52.394;9.756;2022-09-20T17:29:10;2.07;;;1.20;;
3207;SDS011;1616;52.394;9.756;2022-09-20T17:31:42;4.93;;;1.07;;
3207;SDS011;1616;52.394;9.756;2022-09-20T17:34:10;1.40;;;1.00;;
3207;SDS011;1616;52.394;9.756;2022-09-20T17:36:39;7.23;;;1.10;;
3207;SDS011;1616;52.394;9.756;2022-09-20T17:39:07;4.50;;;1.03;;
3207;SDS011;1616;52.394;9.756;2022-09-20T17:41:35;19.33;;;1.90;;
3207;SDS011;1616;52.394;9.756;2022-09-20T17:44:02;2.10;;;1.33;;
3207;SDS011;1616;52.394;9.756;2022-09-20T17:46:32;3.10;;;1.10;;
3207;SDS011;1616;52.394;9.756;2022-09-20T17:49:03;2.30;;;1.30;;
3207;SDS011;1616;52.394;9.756;2022-09-20T17:51:32;4.07;;;1.37;;
3207;SDS011;1616;52.394;9.756;2022-09-20T17:54:00;1.43;;;1.10;;
3207;SDS011;1616;52.394;9.756;2022-09-20T17:56:26;2.73;;;1.50;;
3207;SDS011;1616;52.394;9.756;2022-09-20T17:58:54;1.30;;;1.20;;
3207;SDS011;1616;52.394;9.756;2022-09-20T18:01:21;1.40;;;1.10;;
3207;SDS011;1616;52.394;9.756;2022-09-20T18:03:47;1.70;;;1.30;;
3207;SDS011;1616;52.394;9.756;2022-09-20T18:08:40;2.30;;;1.57;;
3207;SDS011;1616;52.394;9.756;2022-09-20T18:11:09;3.87;;;1.23;;
3207;SDS011;1616;52.394;9.756;2022-09-20T18:13:35;3.60;;;1.50;;
3207;SDS011;1616;52.394;9.756;2022-09-20T18:16:01;1.60;;;1.50;;
3207;SDS011;1616;52.394;9.756;2022-09-20T18:18:29;4.97;;;1.50;;
3207;SDS011;1616;52.394;9.756;2022-09-20T18:20:55;2.37;;;1.20;;
3207;SDS011;1616;52.394;9.756;2022-09-20T18:23:20;4.60;;;3.60;;
3207;SDS011;1616;52.394;9.756;2022-09-20T18:25:46;4.43;;;3.60;;
3207;SDS011;1616;52.394;9.756;2022-09-20T18:28:30;4.13;;;3.73;;
3207;SDS011;1616;52.394;9.756;2022-09-20T18:30:59;5.70;;;2.47;;
3207;SDS011;1616;52.394;9.756;2022-09-20T18:33:27;2.97;;;1.80;;
3207;SDS011;1616;52.394;9.756;2022-09-20T18:35:58;8.53;;;1.63;;
3207;SDS011;1616;52.394;9.756;2022-09-20T18:38:28;2.97;;;1.23;;
3207;SDS011;1616;52.394;9.756;2022-09-20T18:40:56;15.27;;;4.13;;
3207;SDS011;1616;52.394;9.756;2022-09-20T18:43:27;2.00;;;1.80;;
3207;SDS011;1616;52.394;9.756;2022-09-20T18:45:55;6.70;;;1.87;;
3207;SDS011;1616;52.394;9.756;2022-09-20T18:48:22;4.50;;;1.93;;
3207;SDS011;1616;52.394;9.756;2022-09-20T18:50:56;8.80;;;2.47;;
3207;SDS011;1616;52.394;9.756;2022-09-20T18:53:27;4.97;;;3.00;;
3207;SDS011;1616;52.394;9.756;2022-09-20T18:55:54;2.80;;;2.57;;
3207;SDS011;1616;52.394;9.756;2022-09-20T18:58:21;23.23;;;14.57;;
3207;SDS011;1616;52.394;9.756;2022-09-20T19:00:50;28.07;;;15.70;;
3207;SDS011;1616;52.394;9.756;2022-09-20T19:04:19;27.10;;;18.07;;
3207;SDS011;1616;52.394;9.756;2022-09-20T19:06:49;22.97;;;13.83;;
3207;SDS011;1616;52.394;9.756;2022-09-20T19:09:36;15.07;;;11.87;;
3207;SDS011;1616;52.394;9.756;2022-09-20T19:18:05;41.93;;;21.07;;
3207;SDS011;1616;52.394;9.756;2022-09-20T19:26:37;17.30;;;13.10;;
3207;SDS011;1616;52.394;9.756;2022-09-20T19:29:21;23.13;;;14.90;;
3207;SDS011;1616;52.394;9.756;2022-09-20T19:31:50;32.00;;;19.40;;
3207;SDS011;1616;52.394;9.756;2022-09-20T19:34:22;22.17;;;17.30;;
3207;SDS011;1616;52.394;9.756;2022-09-20T19:45:07;29.77;;;19.93;;
3207;SDS011;1616;52.394;9.756;2022-09-20T19:50:26;15.67;;;11.77;;
3207;SDS011;1616;52.394;9.756;2022-09-20T19:52:58;11.67;;;10.60;;
3207;SDS011;1616;52.394;9.756;2022-09-20T19:55:29;10.20;;;9.20;;
3207;SDS011;1616;52.394;9.756;2022-09-20T19:57:55;6.97;;;6.37;;
3207;SDS011;1616;52.394;9.756;2022-09-20T20:00:22;12.30;;;5.30;;
3207;SDS011;1616;52.394;9.756;2022-09-20T20:02:48;5.83;;;4.47;;
3207;SDS011;1616;52.394;9.756;2022-09-20T20:05:18;9.70;;;5.43;;
3207;SDS011;1616;52.394;9.756;2022-09-20T20:07:48;9.07;;;7.53;;
3207;SDS011;1616;52.394;9.756;2022-09-20T20:16:10;10.47;;;7.20;;
3207;SDS011;1616;52.394;9.756;2022-09-20T20:26:53;10.60;;;9.57;;
3207;SDS011;1616;52.394;9.756;2022-09-20T20:29:19;8.10;;;7.00;;
3207;SDS011;1616;52.394;9.756;2022-09-20T20:31:44;13.20;;;7.60;;
3207;SDS011;1616;52.394;9.756;2022-09-20T20:34:10;17.20;;;8.27;;
3207;SDS011;1616;52.394;9.756;2022-09-20T20:36:40;11.13;;;7.70;;
3207;SDS011;1616;52.394;9.756;2022-09-20T20:39:09;17.20;;;7.70;;
3207;SDS011;1616;52.394;9.756;2022-09-20T20:41:35;8.13;;;7.03;;
3207;SDS011;1616;52.394;9.756;2022-09-20T20:44:01;7.03;;;6.37;;
3207;SDS011;1616;52.394;9.756;2022-09-20T20:46:29;15.40;;;5.50;;
3207;SDS011;1616;52.394;9.756;2022-09-20T20:48:56;4.73;;;4.43;;
3207;SDS011;1616;52.394;9.756;2022-09-20T20:51:22;7.53;;;4.63;;
3207;SDS011;1616;52.394;9.756;2022-09-20T20:53:49;4.70;;;3.87;;
3207;SDS011;1616;52.394;9.756;2022-09-20T20:56:17;5.33;;;4.13;;
3207;SDS011;1616;52.394;9.756;2022-09-20T20:58:45;8.67;;;4.30;;
3207;SDS011;1616;52.394;9.756;2022-09-20T21:01:12;5.50;;;4.57;;
3207;SDS011;1616;52.394;9.756;2022-09-20T21:03:42;6.23;;;4.90;;
3207;SDS011;1616;52.394;9.756;2022-09-20T21:06:11;9.00;;;4.17;;
3207;SDS011;1616;52.394;9.756;2022-09-20T21:08:38;7.70;;;4.23;;
3207;SDS011;1616;52.394;9.756;2022-09-20T21:11:06;4.00;;;3.70;;
3207;SDS011;1616;52.394;9.756;2022-09-20T21:13:37;7.90;;;5.37;;
3207;SDS011;1616;52.394;9.756;2022-09-20T21:18:31;8.73;;;7.13;;
3207;SDS011;1616;52.394;9.756;2022-09-20T21:20:58;10.73;;;7.40;;
3207;SDS011;1616;52.394;9.756;2022-09-20T21:23:24;10.60;;;7.13;;
3207;SDS011;1616;52.394;9.756;2022-09-20T21:26:04;7.57;;;6.97;;
3207;SDS011;1616;52.394;9.756;2022-09-20T21:28:35;7.27;;;6.63;;
3207;SDS011;1616;52.394;9.756;2022-09-20T21:31:02;8.50;;;7.60;;
3207;SDS011;1616;52.394;9.756;2022-09-20T21:33:32;8.90;;;7.50;;
3207;SDS011;1616;52.394;9.756;2022-09-20T21:35:58;14.03;;;6.77;;
3207;SDS011;1616;52.394;9.756;2022-09-20T21:38:25;5.57;;;5.17;;
3207;SDS011;1616;52.394;9.756;2022-09-20T21:41:02;4.77;;;4.47;;
3207;SDS011;1616;52.394;9.756;2022-09-20T21:43:32;4.43;;;4.13;;
3207;SDS011;1616;52.394;9.756;2022-09-20T21:45:58;4.80;;;4.50;;
3207;SDS011;1616;52.394;9.756;2022-09-20T21:48:24;6.80;;;3.87;;